Time;durP1;ratioP1;P1;durP2;ratioP2;P2;SDS_P1;SDS_P2;PMS_P1;PMS_P2;Temp;Humidity;BMP_temperature;BMP_pressure;BME280_temperature;BME280_humidity;BME280_pressure;Samples;Min_cycle;Max_cycle;Signal;HPM_P1;HPM_P2
2023/07/16 00:00:25;;;;;;;;;;;20.30;99.90;;;;;;5031264;28;20394;-69
2023/07/16 00:02:53;;;;;;;;;;;20.30;99.90;;;;;;5031960;28;19961;-69
2023/07/16 00:05:21;;;;;;;;;;;20.10;99.90;;;;;;5029169;28;20035;-69
2023/07/16 00:07:49;;;;;;;;;;;20.20;99.90;;;;;;5029438;28;19931;-69
2023/07/16 00:10:17;;;;;;;;;;;20.30;99.90;;;;;;5028990;28;19929;-69
2023/07/16 00:12:45;;;;;;;;;;;20.30;99.90;;;;;;5031065;28;19948;-69
2023/07/16 00:15:13;;;;;;;;;;;20.30;99.90;;;;;;5031980;28;19925;-70
2023/07/16 00:17:42;;;;;;;;;;;20.20;99.90;;;;;;5031629;28;20020;-71
2023/07/16 00:20:11;;;;;;;;;;;20.20;99.90;;;;;;5029697;28;19925;-70
2023/07/16 00:22:39;;;;;;;;;;;20.10;99.90;;;;;;5031451;28;20044;-73
2023/07/16 00:25:08;;;;;;;;;;;20.00;99.90;;;;;;5031606;28;19929;-70
2023/07/16 00:27:36;;;;;;;;;;;20.00;99.90;;;;;;5031651;28;20479;-70
2023/07/16 00:30:04;;;;;;;;;;;20.10;99.90;;;;;;5028891;28;19956;-70
2023/07/16 00:32:32;;;;;;;;;;;20.00;99.90;;;;;;5029979;28;20380;-67
2023/07/16 00:35:02;;;;;;;;;;;20.00;99.90;;;;;;5030064;28;19925;-66
2023/07/16 00:37:30;;;;;;;;;;;19.90;99.90;;;;;;5030440;28;19925;-67
2023/07/16 00:39:58;;;;;;;;;;;19.80;99.90;;;;;;5027358;28;19930;-68
2023/07/16 00:42:26;;;;;;;;;;;19.90;99.90;;;;;;5030396;28;19929;-68
2023/07/16 00:44:54;;;;;;;;;;;20.00;99.90;;;;;;5029310;28;20015;-69
2023/07/16 00:47:22;;;;;;;;;;;20.00;99.90;;;;;;5030735;28;19932;-69
2023/07/16 00:49:50;;;;;;;;;;;20.00;99.90;;;;;;5029379;28;19925;-69
2023/07/16 00:52:21;;;;;;;;;;;19.80;99.90;;;;;;5029810;28;19925;-68
2023/07/16 00:54:49;;;;;;;;;;;19.80;99.90;;;;;;5029408;28;19948;-68
2023/07/16 00:57:17;;;;;;;;;;;19.90;99.90;;;;;;5031006;28;19925;-69
2023/07/16 00:59:45;;;;;;;;;;;19.80;99.90;;;;;;5028385;28;19925;-69
2023/07/16 01:02:13;;;;;;;;;;;19.80;99.90;;;;;;5029221;28;20055;-69
2023/07/16 01:04:41;;;;;;;;;;;19.80;99.90;;;;;;5028069;28;19925;-69
2023/07/16 01:07:09;;;;;;;;;;;19.70;99.90;;;;;;5028826;28;20358;-69
2023/07/16 01:09:42;;;;;;;;;;;19.70;99.90;;;;;;5029471;28;19925;-69
2023/07/16 01:12:10;;;;;;;;;;;19.70;99.90;;;;;;5029950;28;20027;-68
2023/07/16 01:14:39;;;;;;;;;;;19.70;99.90;;;;;;5032131;28;19931;-68
2023/07/16 01:17:07;;;;;;;;;;;19.60;99.90;;;;;;5031888;28;19926;-68
2023/07/16 01:19:35;;;;;;;;;;;19.60;99.90;;;;;;5029755;28;19971;-68
2023/07/16 01:22:17;;;;;;;;;;;19.60;99.90;;;;;;5031632;28;19925;-68
2023/07/16 01:24:54;;;;;;;;;;;19.80;99.90;;;;;;5028473;28;20400;-68
2023/07/16 01:27:30;;;;;;;;;;;19.90;99.90;;;;;;5027392;28;19957;-68
2023/07/16 01:30:02;;;;;;;;;;;19.80;99.90;;;;;;5028749;28;19975;-69
2023/07/16 01:32:31;;;;;;;;;;;19.90;99.90;;;;;;5027715;28;19975;-69
2023/07/16 01:34:59;;;;;;;;;;;20.00;99.90;;;;;;5028783;28;19929;-69
2023/07/16 01:37:27;;;;;;;;;;;20.10;99.90;;;;;;5029889;28;19925;-69
2023/07/16 01:39:56;;;;;;;;;;;20.00;99.90;;;;;;5027844;28;19936;-69
2023/07/16 01:42:24;;;;;;;;;;;20.00;99.90;;;;;;5029593;28;19925;-69
2023/07/16 01:44:52;;;;;;;;;;;20.00;99.90;;;;;;5028507;28;19936;-69
2023/07/16 01:47:24;;;;;;;;;;;20.00;99.90;;;;;;5029392;28;19987;-68
2023/07/16 01:49:52;;;;;;;;;;;20.10;99.90;;;;;;5027272;28;19925;-69
2023/07/16 01:52:20;;;;;;;;;;;20.00;99.90;;;;;;5027335;28;20299;-68
2023/07/16 01:54:48;;;;;;;;;;;20.00;99.90;;;;;;5026343;28;19968;-69
2023/07/16 01:57:16;;;;;;;;;;;19.90;99.90;;;;;;5029563;28;19932;-68
2023/07/16 01:59:44;;;;;;;;;;;19.90;99.90;;;;;;5025011;28;19940;-68
2023/07/16 02:02:12;;;;;;;;;;;19.80;99.90;;;;;;5025195;28;19978;-68
2023/07/16 02:04:42;;;;;;;;;;;19.70;99.90;;;;;;5029286;28;20304;-69
2023/07/16 02:07:10;;;;;;;;;;;19.70;99.90;;;;;;5031723;28;20530;-71
2023/07/16 02:09:38;;;;;;;;;;;19.60;99.90;;;;;;5030483;28;19929;-71
2023/07/16 02:12:06;;;;;;;;;;;19.70;99.90;;;;;;5032032;28;19925;-71
2023/07/16 02:14:34;;;;;;;;;;;19.70;99.90;;;;;;5031314;28;19931;-68
2023/07/16 02:17:02;;;;;;;;;;;19.60;99.90;;;;;;5031367;28;20384;-68
2023/07/16 02:19:29;;;;;;;;;;;19.70;99.90;;;;;;5030625;28;19925;-68
2023/07/16 02:21:59;;;;;;;;;;;19.70;99.90;;;;;;5031213;28;19932;-69
2023/07/16 02:24:26;;;;;;;;;;;19.80;99.90;;;;;;5029352;28;19929;-70
2023/07/16 02:26:54;;;;;;;;;;;20.00;99.90;;;;;;5028881;28;19933;-70
2023/07/16 02:29:22;;;;;;;;;;;19.90;99.90;;;;;;5023786;28;19929;-69
2023/07/16 02:31:50;;;;;;;;;;;20.00;99.90;;;;;;5027912;28;20414;-69
2023/07/16 02:34:17;;;;;;;;;;;20.30;99.90;;;;;;5025202;28;19925;-70
2023/07/16 02:36:45;;;;;;;;;;;20.20;99.90;;;;;;5027031;28;19937;-70
2023/07/16 02:39:14;;;;;;;;;;;20.20;99.90;;;;;;5027915;28;19929;-70
2023/07/16 02:41:42;;;;;;;;;;;20.20;99.90;;;;;;5029407;28;19932;-70
2023/07/16 02:44:10;;;;;;;;;;;20.30;99.90;;;;;;5026335;28;19979;-70
2023/07/16 02:46:38;;;;;;;;;;;20.40;99.90;;;;;;5029196;28;19925;-70
2023/07/16 02:49:06;;;;;;;;;;;20.50;99.90;;;;;;5027863;28;19958;-69
2023/07/16 02:51:33;;;;;;;;;;;20.40;99.90;;;;;;5029813;28;19932;-70
2023/07/16 02:54:01;;;;;;;;;;;20.50;99.90;;;;;;5028752;28;19925;-70
2023/07/16 02:56:31;;;;;;;;;;;20.60;99.90;;;;;;5027605;28;19925;-70
2023/07/16 02:58:58;;;;;;;;;;;20.10;99.90;;;;;;5026840;28;19933;-69
2023/07/16 03:01:26;;;;;;;;;;;19.90;99.90;;;;;;5023215;28;19929;-71
2023/07/16 03:03:54;;;;;;;;;;;19.70;99.90;;;;;;5028361;28;19925;-69
2023/07/16 03:06:22;;;;;;;;;;;19.60;99.90;;;;;;5029492;28;19925;-69
2023/07/16 03:08:50;;;;;;;;;;;19.60;99.90;;;;;;5027899;28;20374;-69
2023/07/16 03:11:18;;;;;;;;;;;19.50;99.90;;;;;;5031682;28;19932;-70
2023/07/16 03:13:47;;;;;;;;;;;19.60;99.90;;;;;;5026705;28;20411;-69
2023/07/16 03:16:15;;;;;;;;;;;19.70;99.90;;;;;;5027068;28;19932;-69
2023/07/16 03:18:44;;;;;;;;;;;19.70;99.90;;;;;;5027155;28;20285;-71
2023/07/16 03:21:13;;;;;;;;;;;19.80;99.90;;;;;;5028841;28;19932;-70
2023/07/16 03:23:41;;;;;;;;;;;19.90;99.90;;;;;;5026357;28;20323;-70
2023/07/16 03:26:08;;;;;;;;;;;19.90;99.90;;;;;;5029379;28;19932;-70
2023/07/16 03:28:36;;;;;;;;;;;19.90;99.90;;;;;;5028758;28;19936;-68
2023/07/16 03:31:05;;;;;;;;;;;19.80;99.90;;;;;;5033300;28;19937;-68
2023/07/16 03:33:33;;;;;;;;;;;19.70;99.90;;;;;;5032600;28;20343;-68
2023/07/16 03:36:01;;;;;;;;;;;19.80;99.90;;;;;;5032613;28;19925;-69
2023/07/16 03:38:29;;;;;;;;;;;19.60;99.90;;;;;;5031340;28;20407;-68
2023/07/16 03:40:56;;;;;;;;;;;19.60;99.90;;;;;;5031734;28;19983;-67
2023/07/16 03:43:24;;;;;;;;;;;19.60;99.90;;;;;;5025952;28;20338;-65
2023/07/16 03:45:52;;;;;;;;;;;19.60;99.90;;;;;;5031516;28;20462;-66
2023/07/16 03:48:21;;;;;;;;;;;19.60;99.90;;;;;;5031139;28;19932;-66
2023/07/16 03:50:49;;;;;;;;;;;19.80;99.90;;;;;;5030682;28;19987;-66
2023/07/16 03:53:17;;;;;;;;;;;19.80;99.90;;;;;;5030586;28;19932;-67
2023/07/16 03:55:44;;;;;;;;;;;19.80;99.90;;;;;;5033780;28;20011;-66
2023/07/16 03:58:12;;;;;;;;;;;19.80;99.90;;;;;;5033073;28;20388;-66
2023/07/16 04:00:41;;;;;;;;;;;20.10;99.90;;;;;;5029626;28;20319;-67
2023/07/16 04:03:09;;;;;;;;;;;20.00;99.90;;;;;;5031231;28;19925;-67
2023/07/16 04:05:38;;;;;;;;;;;20.20;99.90;;;;;;5031646;28;19925;-66
2023/07/16 04:08:08;;;;;;;;;;;20.20;99.90;;;;;;5024015;28;19936;-67
2023/07/16 04:10:36;;;;;;;;;;;20.20;99.90;;;;;;5031868;28;20143;-67
2023/07/16 04:13:03;;;;;;;;;;;20.20;99.90;;;;;;5031740;28;19929;-66
2023/07/16 04:15:31;;;;;;;;;;;20.30;99.90;;;;;;5031339;28;19925;-67
2023/07/16 04:17:59;;;;;;;;;;;20.30;99.90;;;;;;5029946;28;20015;-66
2023/07/16 04:20:27;;;;;;;;;;;20.30;99.90;;;;;;5031552;28;20363;-66
2023/07/16 04:22:56;;;;;;;;;;;20.20;99.90;;;;;;5030878;28;20462;-67
2023/07/16 04:25:24;;;;;;;;;;;20.20;99.90;;;;;;5030874;28;19925;-67
2023/07/16 04:27:52;;;;;;;;;;;20.00;99.90;;;;;;5030504;28;19929;-67
2023/07/16 04:30:20;;;;;;;;;;;19.90;99.90;;;;;;5031887;28;20374;-67
2023/07/16 04:32:48;;;;;;;;;;;20.00;99.90;;;;;;5031490;28;19952;-66
2023/07/16 04:35:17;;;;;;;;;;;20.20;99.90;;;;;;5032046;28;19928;-67
2023/07/16 04:37:45;;;;;;;;;;;20.20;99.90;;;;;;5030989;28;19925;-67
2023/07/16 04:40:15;;;;;;;;;;;20.30;99.90;;;;;;5030281;28;19987;-66
2023/07/16 04:42:42;;;;;;;;;;;20.20;99.90;;;;;;5031069;28;19925;-65
2023/07/16 04:45:10;;;;;;;;;;;20.20;99.90;;;;;;5029922;28;20335;-66
2023/07/16 04:47:38;;;;;;;;;;;20.40;99.90;;;;;;5030239;28;20358;-66
2023/07/16 04:50:06;;;;;;;;;;;20.30;99.90;;;;;;5030129;28;19929;-67
2023/07/16 04:52:34;;;;;;;;;;;20.20;99.90;;;;;;5031400;28;19936;-67
2023/07/16 04:55:02;;;;;;;;;;;20.00;99.90;;;;;;5030814;28;19937;-66
2023/07/16 04:57:33;;;;;;;;;;;20.10;99.90;;;;;;5031891;28;19931;-67
2023/07/16 05:00:00;;;;;;;;;;;20.00;99.90;;;;;;5028250;28;19937;-67
2023/07/16 05:02:28;;;;;;;;;;;19.90;99.90;;;;;;5031970;28;19925;-67
2023/07/16 05:04:56;;;;;;;;;;;19.80;99.90;;;;;;5027766;28;20067;-67
2023/07/16 05:07:24;;;;;;;;;;;20.00;99.90;;;;;;5028849;28;19925;-67
2023/07/16 05:09:51;;;;;;;;;;;20.00;99.90;;;;;;5028216;28;19929;-68
2023/07/16 05:12:19;;;;;;;;;;;19.80;99.90;;;;;;5029199;28;19925;-66
2023/07/16 05:14:49;;;;;;;;;;;19.70;99.90;;;;;;5025070;28;20442;-68
2023/07/16 05:17:17;;;;;;;;;;;19.80;99.90;;;;;;5028714;28;20312;-66
2023/07/16 05:19:44;;;;;;;;;;;19.70;99.90;;;;;;5029141;28;20021;-67
2023/07/16 05:22:12;;;;;;;;;;;19.80;99.90;;;;;;5028776;28;19936;-67
2023/07/16 05:24:40;;;;;;;;;;;19.80;99.90;;;;;;5029760;28;19929;-67
2023/07/16 05:27:08;;;;;;;;;;;19.60;99.90;;;;;;5030524;28;19925;-67
2023/07/16 05:29:36;;;;;;;;;;;19.50;99.90;;;;;;5025514;28;20384;-68
2023/07/16 05:32:05;;;;;;;;;;;19.70;99.90;;;;;;5028484;28;19929;-69
2023/07/16 05:34:33;;;;;;;;;;;19.70;99.90;;;;;;5030765;28;19925;-68
2023/07/16 05:37:01;;;;;;;;;;;19.60;99.90;;;;;;5029415;28;19983;-69
2023/07/16 05:39:29;;;;;;;;;;;19.60;99.90;;;;;;5027984;28;19925;-69
2023/07/16 05:41:57;;;;;;;;;;;19.40;99.90;;;;;;5030061;28;20513;-66
2023/07/16 05:44:24;;;;;;;;;;;19.10;99.90;;;;;;5026341;28;20400;-65
2023/07/16 05:46:52;;;;;;;;;;;19.00;99.90;;;;;;5026373;28;19925;-67
2023/07/16 05:49:21;;;;;;;;;;;19.20;99.90;;;;;;5029017;28;20012;-67
2023/07/16 05:51:49;;;;;;;;;;;19.30;99.90;;;;;;5028167;28;19925;-68
2023/07/16 05:54:17;;;;;;;;;;;19.20;99.90;;;;;;5034238;28;19925;-64
2023/07/16 05:56:45;;;;;;;;;;;19.20;99.90;;;;;;5031778;28;20285;-67
2023/07/16 05:59:12;;;;;;;;;;;19.00;99.90;;;;;;5030800;28;19964;-68
2023/07/16 06:01:40;;;;;;;;;;;19.00;99.90;;;;;;5031574;28;19948;-67
2023/07/16 06:04:08;;;;;;;;;;;18.90;99.90;;;;;;5023391;28;19929;-67
2023/07/16 06:06:37;;;;;;;;;;;19.00;99.90;;;;;;5030267;28;19929;-68
2023/07/16 06:09:05;;;;;;;;;;;19.10;99.90;;;;;;5024016;28;19933;-67
2023/07/16 06:11:35;;;;;;;;;;;19.30;99.90;;;;;;5018439;28;20413;-67
2023/07/16 06:14:02;;;;;;;;;;;19.30;99.90;;;;;;5020393;28;19937;-67
2023/07/16 06:16:30;;;;;;;;;;;19.00;99.90;;;;;;5019181;28;19940;-67
2023/07/16 06:18:58;;;;;;;;;;;19.00;99.90;;;;;;5019067;28;19933;-67
2023/07/16 06:21:26;;;;;;;;;;;19.00;99.90;;;;;;5018464;28;19933;-67
2023/07/16 06:23:55;;;;;;;;;;;18.90;99.90;;;;;;5019600;28;19933;-67
2023/07/16 06:26:23;;;;;;;;;;;19.10;99.90;;;;;;5020248;28;19945;-66
2023/07/16 06:28:51;;;;;;;;;;;19.20;99.90;;;;;;5018427;28;19997;-67
2023/07/16 06:31:19;;;;;;;;;;;19.30;99.90;;;;;;5018321;28;19940;-66
2023/07/16 06:33:47;;;;;;;;;;;19.30;99.90;;;;;;5017692;28;19969;-67
2023/07/16 06:36:15;;;;;;;;;;;19.20;99.90;;;;;;5018224;28;20342;-67
2023/07/16 06:38:43;;;;;;;;;;;19.20;99.90;;;;;;5018403;28;19933;-68
2023/07/16 06:41:12;;;;;;;;;;;19.20;99.90;;;;;;5018385;28;19936;-67
2023/07/16 06:43:40;;;;;;;;;;;19.10;99.90;;;;;;5019337;28;19936;-66
2023/07/16 06:46:07;;;;;;;;;;;19.10;99.90;;;;;;5018826;28;19956;-67
2023/07/16 06:48:35;;;;;;;;;;;19.20;99.90;;;;;;5017787;28;20442;-66
2023/07/16 06:51:03;;;;;;;;;;;19.40;99.90;;;;;;5021958;28;19940;-67
2023/07/16 06:53:31;;;;;;;;;;;19.50;99.90;;;;;;5018933;28;20422;-67
2023/07/16 06:55:59;;;;;;;;;;;19.50;99.90;;;;;;5019347;28;19964;-67
2023/07/16 06:58:33;;;;;;;;;;;19.60;99.90;;;;;;5018739;28;19991;-66
2023/07/16 07:01:01;;;;;;;;;;;19.70;99.90;;;;;;5019884;28;19972;-67
2023/07/16 07:03:29;;;;;;;;;;;19.70;99.90;;;;;;5021420;28;20426;-66
2023/07/16 07:05:57;;;;;;;;;;;19.70;99.90;;;;;;5023741;28;20510;-67
2023/07/16 07:08:25;;;;;;;;;;;19.70;99.90;;;;;;5022829;28;19933;-67
2023/07/16 07:10:53;;;;;;;;;;;19.70;99.90;;;;;;5023612;28;19933;-67
2023/07/16 07:13:20;;;;;;;;;;;19.70;99.90;;;;;;5021403;28;19940;-67
2023/07/16 07:15:49;;;;;;;;;;;19.80;99.90;;;;;;5021837;28;19933;-66
2023/07/16 07:18:17;;;;;;;;;;;20.00;99.90;;;;;;5020779;28;19933;-67
2023/07/16 07:20:47;;;;;;;;;;;20.10;99.90;;;;;;5021818;28;21242;-66
2023/07/16 07:23:15;;;;;;;;;;;20.20;99.90;;;;;;5019962;28;19929;-67
2023/07/16 07:25:43;;;;;;;;;;;20.40;99.90;;;;;;5022523;28;20008;-67
2023/07/16 07:28:11;;;;;;;;;;;20.30;99.90;;;;;;5022434;28;20372;-67
2023/07/16 07:30:39;;;;;;;;;;;20.30;99.90;;;;;;5022693;28;19971;-66
2023/07/16 07:33:08;;;;;;;;;;;20.30;99.90;;;;;;5020599;28;19929;-66
2023/07/16 07:35:36;;;;;;;;;;;20.30;99.90;;;;;;5022291;28;20457;-67
2023/07/16 07:38:04;;;;;;;;;;;20.40;99.90;;;;;;5022175;28;19929;-66
2023/07/16 07:40:32;;;;;;;;;;;20.50;99.90;;;;;;5023779;28;19936;-66
2023/07/16 07:42:59;;;;;;;;;;;20.60;99.90;;;;;;5021952;28;19932;-65
2023/07/16 07:45:27;;;;;;;;;;;20.70;99.90;;;;;;5022575;28;19933;-67
2023/07/16 07:47:55;;;;;;;;;;;20.80;99.90;;;;;;5022297;28;19933;-66
2023/07/16 07:50:25;;;;;;;;;;;20.80;99.90;;;;;;5021990;28;19975;-65
2023/07/16 07:52:54;;;;;;;;;;;20.90;99.90;;;;;;5021246;28;21051;-66
2023/07/16 07:55:21;;;;;;;;;;;20.90;99.90;;;;;;5021472;28;20422;-66
2023/07/16 07:57:50;;;;;;;;;;;20.80;99.90;;;;;;5021541;28;20024;-66
2023/07/16 08:00:17;;;;;;;;;;;20.80;99.90;;;;;;5019645;28;19936;-66
2023/07/16 08:02:45;;;;;;;;;;;20.80;99.90;;;;;;5019528;28;19932;-66
2023/07/16 08:05:13;;;;;;;;;;;20.90;99.90;;;;;;5021056;28;19940;-66
2023/07/16 08:07:42;;;;;;;;;;;21.00;99.90;;;;;;5023187;28;20340;-67
2023/07/16 08:10:11;;;;;;;;;;;21.10;99.90;;;;;;5021235;28;19931;-67
2023/07/16 08:12:39;;;;;;;;;;;21.10;99.90;;;;;;5019713;28;19932;-66
2023/07/16 08:15:09;;;;;;;;;;;20.90;99.90;;;;;;5023253;28;19939;-67
2023/07/16 08:17:37;;;;;;;;;;;20.90;99.90;;;;;;5022452;28;19935;-66
2023/07/16 08:20:06;;;;;;;;;;;21.10;99.90;;;;;;5024216;28;19972;-66
2023/07/16 08:22:34;;;;;;;;;;;21.30;99.90;;;;;;5021521;28;19928;-66
2023/07/16 08:25:04;;;;;;;;;;;21.40;99.90;;;;;;5021505;28;20504;-66
2023/07/16 08:27:32;;;;;;;;;;;21.50;99.90;;;;;;5020466;28;19939;-67
2023/07/16 08:29:59;;;;;;;;;;;21.70;99.90;;;;;;5025822;28;19929;-66
2023/07/16 08:32:27;;;;;;;;;;;21.70;99.90;;;;;;5023130;28;21048;-66
2023/07/16 08:34:55;;;;;;;;;;;21.80;99.90;;;;;;5021965;28;19933;-67
2023/07/16 08:37:23;;;;;;;;;;;21.60;99.90;;;;;;5023161;28;19933;-66
2023/07/16 08:39:52;;;;;;;;;;;21.70;99.90;;;;;;5022869;28;20473;-66
2023/07/16 08:42:21;;;;;;;;;;;21.70;99.90;;;;;;5019665;28;19941;-66
2023/07/16 08:44:49;;;;;;;;;;;21.80;99.90;;;;;;5020135;28;19933;-66
2023/07/16 08:47:17;;;;;;;;;;;21.90;99.90;;;;;;5021014;28;19937;-66
2023/07/16 08:49:49;;;;;;;;;;;22.10;99.90;;;;;;5018841;28;19937;-66
2023/07/16 08:52:18;;;;;;;;;;;22.20;99.90;;;;;;5018563;28;19933;-66
2023/07/16 08:54:45;;;;;;;;;;;22.20;99.90;;;;;;5018842;28;19937;-67
2023/07/16 08:57:14;;;;;;;;;;;22.10;99.90;;;;;;5022241;28;19929;-66
2023/07/16 08:59:43;;;;;;;;;;;22.10;99.90;;;;;;5017828;28;20350;-66
2023/07/16 09:02:12;;;;;;;;;;;22.30;99.90;;;;;;5018367;28;20296;-65
2023/07/16 09:04:40;;;;;;;;;;;22.40;99.90;;;;;;5019638;28;20395;-67
2023/07/16 09:07:08;;;;;;;;;;;22.40;99.90;;;;;;5021024;28;19987;-66
2023/07/16 09:09:35;;;;;;;;;;;22.50;99.90;;;;;;5017744;28;19933;-66
2023/07/16 09:12:03;;;;;;;;;;;22.60;99.90;;;;;;5018002;28;19979;-66
2023/07/16 09:14:31;;;;;;;;;;;22.50;99.90;;;;;;5020344;28;19940;-66
2023/07/16 09:17:00;;;;;;;;;;;22.80;99.90;;;;;;5024473;28;19940;-65
2023/07/16 09:19:28;;;;;;;;;;;22.70;99.90;;;;;;5023816;28;19936;-65
2023/07/16 09:21:56;;;;;;;;;;;22.60;99.90;;;;;;5021875;28;21036;-66
2023/07/16 09:24:24;;;;;;;;;;;22.60;99.90;;;;;;5022961;28;19933;-65
2023/07/16 09:26:52;;;;;;;;;;;22.70;99.90;;;;;;5018857;28;20033;-65
2023/07/16 09:29:20;;;;;;;;;;;22.80;99.90;;;;;;5017252;28;19937;-66
2023/07/16 09:31:53;;;;;;;;;;;23.10;99.90;;;;;;5016922;28;20729;-66
2023/07/16 09:34:22;;;;;;;;;;;23.30;99.90;;;;;;5020067;28;20473;-66
2023/07/16 09:36:50;;;;;;;;;;;23.20;99.90;;;;;;5019832;28;20603;-66
2023/07/16 09:39:19;;;;;;;;;;;23.40;99.90;;;;;;5017334;28;19972;-64
2023/07/16 09:41:48;;;;;;;;;;;23.50;99.90;;;;;;5017743;28;20528;-66
2023/07/16 09:44:16;;;;;;;;;;;23.80;99.90;;;;;;5019856;28;19940;-66
2023/07/16 09:46:44;;;;;;;;;;;24.00;99.90;;;;;;5019841;28;19980;-65
2023/07/16 09:49:12;;;;;;;;;;;24.00;99.90;;;;;;5019867;28;19929;-66
2023/07/16 09:51:43;;;;;;;;;;;24.10;99.90;;;;;;5017956;28;19956;-65
2023/07/16 09:54:13;;;;;;;;;;;24.10;99.90;;;;;;5019309;28;20015;-66
2023/07/16 09:56:42;;;;;;;;;;;24.20;99.90;;;;;;5018082;28;19925;-66
2023/07/16 09:59:12;;;;;;;;;;;24.30;99.90;;;;;;5018497;28;19924;-66
2023/07/16 10:01:40;;;;;;;;;;;24.50;99.90;;;;;;5018452;28;19936;-66
2023/07/16 10:04:14;;;;;;;;;;;24.60;99.90;;;;;;5023164;28;19975;-66
2023/07/16 10:06:53;;;;;;;;;;;24.70;99.90;;;;;;5022641;28;19947;-66
2023/07/16 10:09:34;;;;;;;;;;;24.90;99.90;;;;;;5023733;28;20432;-66
2023/07/16 10:12:18;;;;;;;;;;;24.90;99.90;;;;;;5018963;28;19944;-66
2023/07/16 10:14:47;;;;;;;;;;;24.70;99.90;;;;;;5021307;28;19990;-65
2023/07/16 10:17:16;;;;;;;;;;;24.70;99.90;;;;;;5020801;28;19956;-66
2023/07/16 10:19:47;;;;;;;;;;;24.80;99.90;;;;;;5021510;28;19929;-65
2023/07/16 10:22:17;;;;;;;;;;;25.20;99.90;;;;;;5019727;28;20010;-65
2023/07/16 10:24:44;;;;;;;;;;;25.30;99.60;;;;;;5021443;28;20350;-68
2023/07/16 10:27:14;;;;;;;;;;;25.40;99.90;;;;;;5021662;28;20679;-65
2023/07/16 10:29:42;;;;;;;;;;;25.30;98.00;;;;;;5021642;28;19925;-66
2023/07/16 10:32:10;;;;;;;;;;;25.50;98.40;;;;;;5020075;28;20422;-66
2023/07/16 10:34:40;;;;;;;;;;;25.70;97.80;;;;;;5021706;28;19932;-66
2023/07/16 10:37:08;;;;;;;;;;;25.80;97.10;;;;;;5021748;28;20408;-65
2023/07/16 10:39:45;;;;;;;;;;;25.80;97.50;;;;;;5024436;28;20020;-66
2023/07/16 10:42:13;;;;;;;;;;;25.80;98.00;;;;;;5022757;28;20403;-66
2023/07/16 10:44:40;;;;;;;;;;;26.10;97.00;;;;;;5025766;28;19929;-65
2023/07/16 10:47:09;;;;;;;;;;;26.10;96.90;;;;;;5025569;28;20047;-65
2023/07/16 10:49:37;;;;;;;;;;;26.30;97.90;;;;;;5025391;28;19929;-64
2023/07/16 10:52:05;;;;;;;;;;;26.20;96.50;;;;;;5024364;28;21099;-65
2023/07/16 10:54:33;;;;;;;;;;;26.50;96.10;;;;;;5025391;28;20003;-66
2023/07/16 10:57:02;;;;;;;;;;;26.70;96.40;;;;;;5025289;28;19963;-66
2023/07/16 10:59:30;;;;;;;;;;;26.90;95.30;;;;;;5025050;28;20354;-66
2023/07/16 11:01:57;;;;;;;;;;;26.60;95.10;;;;;;5023730;28;20494;-66
2023/07/16 11:04:25;;;;;;;;;;;26.40;95.20;;;;;;5025105;28;19989;-66
2023/07/16 11:06:53;;;;;;;;;;;26.20;95.30;;;;;;5025287;28;19933;-65
2023/07/16 11:09:21;;;;;;;;;;;25.80;95.20;;;;;;5024034;28;20767;-66
2023/07/16 11:11:49;;;;;;;;;;;25.80;95.60;;;;;;5023062;28;20430;-66
2023/07/16 11:14:18;;;;;;;;;;;25.80;96.30;;;;;;5024702;28;19937;-65
2023/07/16 11:16:46;;;;;;;;;;;26.10;95.70;;;;;;5026207;28;20619;-64
2023/07/16 11:19:14;;;;;;;;;;;26.30;94.30;;;;;;5025296;28;20362;-65
2023/07/16 11:21:42;;;;;;;;;;;26.40;94.00;;;;;;5024233;28;19932;-66
2023/07/16 11:24:10;;;;;;;;;;;26.20;93.50;;;;;;5026212;28;19925;-65
2023/07/16 11:26:38;;;;;;;;;;;26.50;94.60;;;;;;5026351;28;19929;-66
2023/07/16 11:29:13;;;;;;;;;;;26.50;93.70;;;;;;5026307;28;19933;-66
2023/07/16 11:31:42;;;;;;;;;;;26.70;94.80;;;;;;5024311;28;19928;-66
2023/07/16 11:34:13;;;;;;;;;;;26.80;92.30;;;;;;5025999;28;19932;-66
2023/07/16 11:36:41;;;;;;;;;;;26.60;92.20;;;;;;5026553;28;19947;-66
2023/07/16 11:39:11;;;;;;;;;;;26.50;92.30;;;;;;5025906;28;19971;-66
2023/07/16 11:41:38;;;;;;;;;;;26.70;92.30;;;;;;5024354;28;19972;-66
2023/07/16 11:44:09;;;;;;;;;;;27.00;91.80;;;;;;5025287;28;19948;-66
2023/07/16 11:46:37;;;;;;;;;;;26.70;91.40;;;;;;5026355;28;19929;-65
2023/07/16 11:49:06;;;;;;;;;;;26.60;91.90;;;;;;5024751;28;19929;-66
2023/07/16 11:51:33;;;;;;;;;;;26.90;92.40;;;;;;5024180;28;20023;-66
2023/07/16 11:54:01;;;;;;;;;;;27.20;91.70;;;;;;5026252;28;19940;-67
2023/07/16 11:56:29;;;;;;;;;;;27.50;91.60;;;;;;5025459;28;20090;-67
2023/07/16 11:58:57;;;;;;;;;;;27.80;91.40;;;;;;5025616;28;19944;-67
2023/07/16 12:01:25;;;;;;;;;;;27.80;90.60;;;;;;5023873;28;19940;-66
2023/07/16 12:03:53;;;;;;;;;;;27.80;89.90;;;;;;5025721;28;20044;-66
2023/07/16 12:06:23;;;;;;;;;;;27.90;88.90;;;;;;5025110;28;19933;-67
2023/07/16 12:08:50;;;;;;;;;;;28.10;90.20;;;;;;5025283;28;19948;-66
2023/07/16 12:11:18;;;;;;;;;;;28.10;88.40;;;;;;5022978;28;20403;-66
2023/07/16 12:13:46;;;;;;;;;;;28.10;89.70;;;;;;5025540;28;19937;-66
2023/07/16 12:16:14;;;;;;;;;;;28.30;89.20;;;;;;5025138;28;19925;-66
2023/07/16 12:18:42;;;;;;;;;;;28.40;85.80;;;;;;5023595;28;20362;-67
2023/07/16 12:21:10;;;;;;;;;;;28.60;85.70;;;;;;5024309;28;19929;-66
2023/07/16 12:23:39;;;;;;;;;;;28.60;86.60;;;;;;5024722;28;19971;-66
2023/07/16 12:26:08;;;;;;;;;;;28.60;85.60;;;;;;5024937;28;19929;-67
2023/07/16 12:28:36;;;;;;;;;;;28.70;87.10;;;;;;5025352;28;19940;-67
2023/07/16 12:31:04;;;;;;;;;;;29.00;85.10;;;;;;5025124;28;19940;-67
2023/07/16 12:33:32;;;;;;;;;;;29.10;85.70;;;;;;5023608;28;19937;-66
2023/07/16 12:35:59;;;;;;;;;;;28.70;82.60;;;;;;5024866;28;19933;-67
2023/07/16 12:38:27;;;;;;;;;;;28.70;84.60;;;;;;5024703;28;19933;-66
2023/07/16 12:40:56;;;;;;;;;;;28.80;84.20;;;;;;5024799;28;21064;-66
2023/07/16 12:43:24;;;;;;;;;;;29.00;83.30;;;;;;5023456;28;19941;-66
2023/07/16 12:45:52;;;;;;;;;;;29.30;82.70;;;;;;5024186;28;20022;-66
2023/07/16 12:48:19;;;;;;;;;;;28.80;80.30;;;;;;5024276;28;19976;-66
2023/07/16 12:50:47;;;;;;;;;;;28.70;82.80;;;;;;5024009;28;19933;-65
2023/07/16 12:53:15;;;;;;;;;;;28.60;81.30;;;;;;5023174;28;19982;-69
2023/07/16 12:55:43;;;;;;;;;;;28.20;82.80;;;;;;5024743;28;20395;-67
2023/07/16 12:58:12;;;;;;;;;;;28.10;82.50;;;;;;5024214;28;19929;-67
2023/07/16 13:00:40;;;;;;;;;;;28.10;83.00;;;;;;5024371;28;19925;-66
2023/07/16 13:03:11;;;;;;;;;;;28.30;81.80;;;;;;5023005;28;19983;-67
2023/07/16 13:05:38;;;;;;;;;;;28.30;80.40;;;;;;5024660;28;19925;-67
2023/07/16 13:08:06;;;;;;;;;;;28.30;83.30;;;;;;5023985;28;19987;-67
2023/07/16 13:10:34;;;;;;;;;;;28.50;82.30;;;;;;5022259;28;20639;-67
2023/07/16 13:13:03;;;;;;;;;;;28.50;81.50;;;;;;5022582;28;19937;-67
2023/07/16 13:15:33;;;;;;;;;;;28.50;81.70;;;;;;5024694;28;19933;-67
2023/07/16 13:18:02;;;;;;;;;;;28.70;81.90;;;;;;5023324;28;19933;-68
2023/07/16 13:20:30;;;;;;;;;;;28.50;81.10;;;;;;5021268;28;19933;-68
2023/07/16 13:22:58;;;;;;;;;;;28.70;80.50;;;;;;5021762;28;19940;-67
2023/07/16 13:25:26;;;;;;;;;;;28.60;81.90;;;;;;5023585;28;19937;-68
2023/07/16 13:27:54;;;;;;;;;;;28.70;80.90;;;;;;5021260;28;19937;-67
2023/07/16 13:30:22;;;;;;;;;;;28.30;80.00;;;;;;5019967;28;20795;-67
2023/07/16 13:32:51;;;;;;;;;;;28.40;80.30;;;;;;5020828;28;19933;-67
2023/07/16 13:35:19;;;;;;;;;;;28.60;80.00;;;;;;5020730;28;20415;-67
2023/07/16 13:37:46;;;;;;;;;;;28.50;79.60;;;;;;5021818;28;20142;-67
2023/07/16 13:40:14;;;;;;;;;;;28.60;80.40;;;;;;5020329;28;19941;-67
2023/07/16 13:42:42;;;;;;;;;;;28.80;80.00;;;;;;5019250;28;19929;-68
2023/07/16 13:45:10;;;;;;;;;;;28.90;80.20;;;;;;5022056;28;19960;-67
2023/07/16 13:47:37;;;;;;;;;;;29.30;81.20;;;;;;5019711;28;19925;-67
2023/07/16 13:50:08;;;;;;;;;;;29.60;80.80;;;;;;5021631;28;19949;-67
2023/07/16 13:52:36;;;;;;;;;;;29.50;78.10;;;;;;5018472;28;19963;-67
2023/07/16 13:55:04;;;;;;;;;;;29.20;77.80;;;;;;5019610;28;19955;-67
2023/07/16 13:57:32;;;;;;;;;;;29.20;78.20;;;;;;5020420;28;19940;-68
2023/07/16 14:00:00;;;;;;;;;;;29.20;77.50;;;;;;5020832;28;19999;-68
2023/07/16 14:02:29;;;;;;;;;;;29.10;78.40;;;;;;5022297;28;20008;-67
2023/07/16 14:04:57;;;;;;;;;;;29.20;80.20;;;;;;5020228;28;19952;-68
2023/07/16 14:07:26;;;;;;;;;;;29.30;76.80;;;;;;5020874;28;19956;-67
2023/07/16 14:09:54;;;;;;;;;;;28.80;77.30;;;;;;5019197;28;19933;-66
2023/07/16 14:12:22;;;;;;;;;;;28.60;76.80;;;;;;5017872;28;20340;-66
2023/07/16 14:14:50;;;;;;;;;;;28.80;78.10;;;;;;5020615;28;19978;-67
2023/07/16 14:17:18;;;;;;;;;;;28.60;77.40;;;;;;5021103;28;19944;-70
2023/07/16 14:19:45;;;;;;;;;;;28.40;78.00;;;;;;5021240;28;19931;-66
2023/07/16 14:22:15;;;;;;;;;;;28.20;79.20;;;;;;5027299;28;19971;-70